Time;durP1;ratioP1;P1;durP2;ratioP2;P2;SDS_P1;SDS_P2;PMS_P1;PMS_P2;Temp;Humidity;BMP_temperature;BMP_pressure;BME280_temperature;BME280_humidity;BME280_pressure;Samples;Min_cycle;Max_cycle;Signal;HPM_P1;HPM_P2
2022/04/24 00:02:04;;;;;;;10.23;5.40;;;;;;;11.84;57.45;100127.47;6334608;22;20014;-74
2022/04/24 00:04:30;;;;;;;9.40;6.50;;;;;;;11.83;57.40;100137.38;6301696;22;20039;-74
2022/04/24 00:06:55;;;;;;;8.07;5.73;;;;;;;11.78;57.49;100134.63;6336127;22;20006;-74
2022/04/24 00:09:21;;;;;;;7.80;5.80;;;;;;;11.71;57.97;100133.91;6329064;22;20279;-74
2022/04/24 00:11:46;;;;;;;8.13;6.13;;;;;;;11.63;58.43;100129.78;6308201;22;20310;-74
2022/04/24 00:14:12;;;;;;;7.53;6.60;;;;;;;11.54;58.67;100133.84;6328956;22;20083;-74
2022/04/24 00:16:38;;;;;;;7.93;5.93;;;;;;;11.50;59.39;100132.72;6337479;22;20378;-74
2022/04/24 00:19:05;;;;;;;8.02;6.38;;;;;;;11.45;59.20;100130.75;6309677;22;20007;-74
2022/04/24 00:21:30;;;;;;;9.07;6.47;;;;;;;11.35;59.73;100129.72;6330480;22;20011;-74
2022/04/24 00:23:56;;;;;;;7.18;6.30;;;;;;;11.26;59.70;100118.56;6337049;22;20015;-74
2022/04/24 00:26:21;;;;;;;8.30;6.72;;;;;;;11.21;60.11;100115.78;6330523;22;20021;-76
2022/04/24 00:28:47;;;;;;;8.77;7.32;;;;;;;11.21;60.38;100115.78;6337353;22;20002;-74
2022/04/24 00:31:12;;;;;;;8.85;6.20;;;;;;;11.15;60.93;100119.41;6334574;22;20003;-74
2022/04/24 00:33:37;;;;;;;7.97;6.47;;;;;;;11.01;61.24;100116.19;6332902;22;20107;-74
2022/04/24 00:36:03;;;;;;;8.47;6.20;;;;;;;11.00;61.52;100124.44;6337411;22;20023;-74
2022/04/24 00:38:31;;;;;;;10.35;6.53;;;;;;;10.96;61.28;100124.06;6330349;22;20245;-74
2022/04/24 00:40:56;;;;;;;8.82;6.25;;;;;;;10.95;61.46;100119.78;6337318;22;20082;-74
2022/04/24 00:43:22;;;;;;;8.07;6.35;;;;;;;10.80;62.27;100109.56;6302687;22;20045;-74
2022/04/24 00:45:48;;;;;;;7.63;6.25;;;;;;;10.78;62.24;100113.53;6337201;22;20010;-74
2022/04/24 00:48:13;;;;;;;8.13;6.78;;;;;;;10.73;62.46;100110.75;6337034;22;20317;-74
2022/04/24 00:50:39;;;;;;;9.07;7.10;;;;;;;10.67;62.77;100109.78;6330247;22;20396;-75
2022/04/24 00:53:06;;;;;;;10.85;6.97;;;;;;;10.64;63.15;100112.13;6337210;22;20006;-74
2022/04/24 00:55:31;;;;;;;8.98;7.03;;;;;;;10.57;63.54;100106.88;6330092;22;20424;-74
2022/04/24 00:57:57;;;;;;;8.32;6.72;;;;;;;10.53;63.75;100105.72;6337154;22;20004;-74
2022/04/24 01:00:22;;;;;;;9.75;6.70;;;;;;;10.52;63.68;100106.78;6330110;22;20043;-74
2022/04/24 01:02:47;;;;;;;9.52;6.82;;;;;;;10.50;63.81;100107.00;6309254;22;19998;-74
2022/04/24 01:05:13;;;;;;;7.63;6.38;;;;;;;10.43;64.00;100100.16;6335339;22;20067;-74
2022/04/24 01:07:38;;;;;;;14.80;7.20;;;;;;;10.39;64.56;100107.78;6330336;22;20046;-74
2022/04/24 01:10:04;;;;;;;9.27;6.60;;;;;;;10.36;64.39;100107.44;6309234;22;20320;-74
2022/04/24 01:12:29;;;;;;;9.75;7.25;;;;;;;10.35;64.61;100097.81;6302935;22;20114;-74
2022/04/24 01:14:54;;;;;;;8.40;6.90;;;;;;;10.33;64.68;100102.56;6309187;22;20030;-75
2022/04/24 01:17:20;;;;;;;9.93;6.87;;;;;;;10.34;64.88;100110.34;6307295;22;20256;-74
2022/04/24 01:19:45;;;;;;;10.43;6.65;;;;;;;10.27;65.32;100106.97;6304754;22;20248;-75
2022/04/24 01:22:11;;;;;;;7.68;6.30;;;;;;;10.30;65.29;100111.84;6309237;22;20058;-75
2022/04/24 01:24:36;;;;;;;8.68;6.80;;;;;;;10.23;65.97;100105.81;6329837;22;20439;-74
2022/04/24 01:27:02;;;;;;;9.10;6.63;;;;;;;10.25;65.51;100109.06;6336397;22;20003;-74
2022/04/24 01:29:27;;;;;;;9.32;7.05;;;;;;;10.19;65.86;100102.75;6330058;22;20508;-74
2022/04/24 01:31:53;;;;;;;7.88;6.78;;;;;;;10.19;65.70;100112.63;6336694;22;20109;-74
2022/04/24 01:34:20;;;;;;;7.80;6.82;;;;;;;10.21;65.95;100115.91;6337396;22;20483;-74
2022/04/24 01:36:45;;;;;;;8.05;6.80;;;;;;;10.16;65.80;100113.91;6302758;22;20006;-74
2022/04/24 01:39:10;;;;;;;9.38;7.78;;;;;;;10.17;66.36;100112.84;6309289;22;20052;-74
2022/04/24 01:41:36;;;;;;;8.95;6.90;;;;;;;10.14;66.07;100120.53;6329898;22;20019;-74
2022/04/24 01:44:02;;;;;;;9.98;7.55;;;;;;;10.05;66.51;100109.34;6336771;22;19999;-74
2022/04/24 01:49:48;;;;;;;10.85;7.22;;;;;;;9.95;66.99;100111.75;6336922;22;20013;-75
2022/04/24 01:52:14;;;;;;;9.23;7.50;;;;;;;9.88;67.84;100111.03;6323345;22;20008;-74
2022/04/24 01:54:39;;;;;;;9.73;7.53;;;;;;;9.85;67.35;100112.31;6309304;22;20729;-74
2022/04/24 01:57:04;;;;;;;11.32;7.57;;;;;;;9.81;67.70;100111.09;6336885;22;20233;-74
2022/04/24 01:59:30;;;;;;;8.95;7.40;;;;;;;9.75;68.18;100111.22;6329910;22;20015;-75
2022/04/24 02:01:55;;;;;;;8.77;7.10;;;;;;;9.74;68.21;100107.72;6336749;22;20442;-74
2022/04/24 02:04:23;;;;;;;9.70;7.22;;;;;;;9.69;68.51;100118.28;6329584;22;20327;-74
2022/04/24 02:06:49;;;;;;;8.88;7.10;;;;;;;9.61;68.73;100110.59;6336749;22;20343;-74
2022/04/24 02:09:14;;;;;;;9.68;7.75;;;;;;;9.52;69.21;100102.06;6333604;22;20003;-74
2022/04/24 02:11:39;;;;;;;10.38;8.05;;;;;;;9.52;69.81;100117.25;6332768;22;20010;-74
2022/04/24 02:17:26;;;;;;;9.50;7.18;;;;;;;9.44;70.46;100105.03;6336825;22;20247;-75
2022/04/24 02:19:51;;;;;;;10.07;6.93;;;;;;;9.51;69.91;100111.09;6309138;22;20090;-75
2022/04/24 02:22:16;;;;;;;10.23;8.18;;;;;;;9.52;69.53;100109.25;6329877;22;20244;-75
2022/04/24 02:24:42;;;;;;;10.33;7.63;;;;;;;9.52;69.95;100111.91;6336720;22;20010;-76
2022/04/24 02:27:07;;;;;;;8.27;7.30;;;;;;;9.51;70.00;100113.78;6329627;22;20706;-76
2022/04/24 02:29:33;;;;;;;9.00;7.10;;;;;;;9.52;70.57;100115.41;6335072;22;20009;-77
2022/04/24 02:31:59;;;;;;;10.70;7.70;;;;;;;9.48;70.51;100105.41;6336792;22;20038;-77
2022/04/24 02:34:25;;;;;;;9.52;8.10;;;;;;;9.47;70.86;100101.91;6329870;22;20395;-76
2022/04/24 02:36:51;;;;;;;10.27;7.78;;;;;;;9.45;70.50;100104.00;6336659;22;20399;-77
2022/04/24 02:39:16;;;;;;;10.70;7.57;;;;;;;9.50;70.89;100106.00;6302605;22;20114;-76
2022/04/24 02:41:41;;;;;;;13.10;8.73;;;;;;;9.48;70.31;100108.88;6308890;22;20025;-77
2022/04/24 02:44:06;;;;;;;9.93;7.80;;;;;;;9.46;71.02;100112.81;6329611;22;20272;-75
2022/04/24 02:46:32;;;;;;;10.17;8.43;;;;;;;9.45;70.83;100112.00;6308795;22;20060;-75
2022/04/24 02:48:57;;;;;;;10.85;8.30;;;;;;;9.43;70.98;100111.41;6336463;22;20240;-75
2022/04/24 02:51:22;;;;;;;10.43;8.33;;;;;;;9.46;71.15;100112.81;6329672;22;20014;-75
2022/04/24 02:53:48;;;;;;;9.95;8.43;;;;;;;9.51;70.63;100119.09;6336428;22;20614;-75
2022/04/24 02:56:13;;;;;;;10.35;8.02;;;;;;;9.52;71.24;100115.41;6329682;22;20085;-75
2022/04/24 02:58:38;;;;;;;11.63;8.03;;;;;;;9.54;70.78;100124.03;6336515;22;20007;-76
2022/04/24 03:01:04;;;;;;;12.18;9.18;;;;;;;9.55;71.09;100116.81;6306764;22;20300;-76
2022/04/24 03:03:30;;;;;;;12.02;8.73;;;;;;;9.52;70.60;100117.25;6304206;22;20017;-75
2022/04/24 03:09:16;;;;;;;12.60;8.77;;;;;;;9.42;70.97;100119.66;6336576;22;20034;-76
2022/04/24 03:11:41;;;;;;;10.85;8.90;;;;;;;9.36;71.54;100121.38;6334745;22;20006;-75
2022/04/24 03:14:06;;;;;;;14.85;10.10;;;;;;;9.25;72.29;100124.75;6328012;22;20014;-75
2022/04/24 03:16:32;;;;;;;12.87;8.63;;;;;;;9.16;72.17;100113.59;6308680;22;20013;-76
2022/04/24 03:18:57;;;;;;;12.80;9.77;;;;;;;9.05;73.07;100116.19;6302042;22;20252;-76
2022/04/24 03:21:22;;;;;;;11.10;8.80;;;;;;;8.97;73.80;100119.97;6334911;22;20241;-76
2022/04/24 03:23:47;;;;;;;12.48;9.23;;;;;;;8.88;74.00;100130.09;6336352;22;20328;-76
2022/04/24 03:26:13;;;;;;;12.83;9.50;;;;;;;8.82;74.38;100128.31;6302151;22;20424;-76
2022/04/24 03:28:40;;;;;;;13.48;9.85;;;;;;;8.74;74.91;100119.78;6336278;22;20268;-76
2022/04/24 03:31:05;;;;;;;14.82;9.20;;;;;;;8.69;74.84;100129.25;6329423;22;20018;-76
2022/04/24 03:33:30;;;;;;;15.48;10.50;;;;;;;8.66;75.15;100120.84;6336511;22;20041;-76
2022/04/24 03:35:56;;;;;;;12.90;9.23;;;;;;;8.61;75.51;100128.69;6331923;22;20090;-76
2022/04/24 03:38:21;;;;;;;11.50;9.43;;;;;;;8.53;75.98;100121.81;6306260;22;20255;-76
2022/04/24 03:40:46;;;;;;;12.27;9.68;;;;;;;8.47;76.68;100125.34;6334508;22;20064;-76
2022/04/24 03:43:11;;;;;;;11.60;9.48;;;;;;;8.44;76.97;100124.97;6329408;22;20014;-75
2022/04/24 03:45:37;;;;;;;10.77;9.13;;;;;;;8.38;77.56;100130.13;6308561;22;20045;-76
2022/04/24 03:48:02;;;;;;;12.88;10.13;;;;;;;8.31;78.33;100118.66;6329015;22;20258;-75
2022/04/24 03:50:27;;;;;;;13.05;10.00;;;;;;;8.31;78.45;100124.00;6336107;22;20003;-76
2022/04/24 03:52:53;;;;;;;12.60;9.70;;;;;;;8.28;79.33;100115.63;6334619;22;20003;-76
2022/04/24 03:55:18;;;;;;;13.40;10.23;;;;;;;8.22;79.19;100121.81;6329363;22;20376;-76
2022/04/24 03:57:43;;;;;;;14.10;10.83;;;;;;;8.17;80.06;100122.47;6336195;22;20705;-76
2022/04/24 04:00:09;;;;;;;12.75;10.00;;;;;;;8.14;80.96;100122.91;6328028;22;20354;-75
2022/04/24 04:02:45;;;;;;;14.32;10.32;;;;;;;8.08;80.89;100111.25;6336012;22;19999;-76
2022/04/24 04:05:11;;;;;;;11.93;9.07;;;;;;;8.11;81.03;100119.88;6328961;22;20016;-76
2022/04/24 04:07:36;;;;;;;17.30;10.95;;;;;;;8.02;81.96;100114.78;6308808;22;20451;-75
2022/04/24 04:10:02;;;;;;;12.80;10.25;;;;;;;8.01;82.49;100115.81;6308335;22;20011;-75
2022/04/24 04:12:28;;;;;;;12.60;9.65;;;;;;;8.05;82.19;100125.00;6328825;22;20458;-75
2022/04/24 04:14:53;;;;;;;12.17;10.23;;;;;;;8.00;82.73;100129.34;6335763;22;20015;-76
2022/04/24 04:17:19;;;;;;;14.30;9.97;;;;;;;7.99;82.99;100125.03;6329296;22;20662;-75
2022/04/24 04:19:44;;;;;;;12.57;9.52;;;;;;;7.92;83.56;100113.63;6308200;22;20252;-76
2022/04/24 04:22:09;;;;;;;14.07;10.05;;;;;;;7.97;83.51;100125.25;6334013;22;20336;-76
2022/04/24 04:24:34;;;;;;;14.07;9.87;;;;;;;7.93;83.81;100131.22;6330956;22;20010;-76
2022/04/24 04:27:00;;;;;;;14.00;10.43;;;;;;;7.82;84.93;100116.78;6307988;22;20542;-75
2022/04/24 04:29:25;;;;;;;16.73;9.83;;;;;;;7.85;84.52;100120.84;6301650;22;20249;-75
2022/04/24 04:31:50;;;;;;;14.52;9.75;;;;;;;7.90;84.64;100131.66;6307874;22;20239;-76
2022/04/24 04:34:15;;;;;;;13.85;10.23;;;;;;;7.91;85.30;100131.44;6328733;22;20079;-75
2022/04/24 04:36:41;;;;;;;13.40;9.52;;;;;;;7.98;85.05;100136.72;6308047;22;20002;-75
2022/04/24 04:39:06;;;;;;;11.53;9.40;;;;;;;8.03;85.29;100145.69;6335914;22;20007;-75
2022/04/24 04:41:31;;;;;;;12.50;9.45;;;;;;;8.07;84.71;100143.41;6328857;22;20708;-76
2022/04/24 04:43:57;;;;;;;11.83;9.17;;;;;;;8.17;84.30;100150.94;6333931;22;20082;-76
2022/04/24 04:46:22;;;;;;;14.52;10.20;;;;;;;8.23;84.35;100148.25;6328660;22;20686;-75
2022/04/24 04:52:08;;;;;;;12.77;9.85;;;;;;;8.55;83.18;100158.88;6335746;22;20017;-76
2022/04/24 04:54:34;;;;;;;11.23;8.52;;;;;;;8.67;82.58;100149.13;6335557;22;20011;-75
2022/04/24 04:56:59;;;;;;;11.57;9.15;;;;;;;8.84;81.11;100152.06;6330800;22;20013;-76
2022/04/24 04:59:25;;;;;;;11.77;8.65;;;;;;;8.99;81.35;100153.38;6306140;22;20026;-76
2022/04/24 05:01:50;;;;;;;12.00;8.23;;;;;;;9.20;80.30;100168.09;6335860;22;20003;-76
2022/04/24 05:04:15;;;;;;;11.30;8.67;;;;;;;9.39;78.89;100163.59;6302885;22;20335;-76
2022/04/24 05:06:40;;;;;;;13.73;9.60;;;;;;;9.56;78.27;100164.66;6336852;22;20565;-76
2022/04/24 05:09:06;;;;;;;11.80;8.80;;;;;;;9.78;77.38;100164.16;6328091;22;20411;-76
2022/04/24 05:11:31;;;;;;;10.63;8.27;;;;;;;10.01;76.54;100166.91;6309125;22;20021;-76
2022/04/24 05:13:57;;;;;;;12.70;9.35;;;;;;;10.19;75.40;100176.75;6309464;22;20015;-76
2022/04/24 05:16:22;;;;;;;13.90;8.75;;;;;;;10.44;74.31;100176.63;6330293;22;20017;-76
2022/04/24 05:22:09;;;;;;;10.35;8.07;;;;;;;10.91;71.98;100182.00;6336915;22;20022;-76
2022/04/24 05:24:34;;;;;;;10.93;8.20;;;;;;;11.13;70.12;100191.06;6336712;22;20011;-76
2022/04/24 05:27:01;;;;;;;10.85;8.70;;;;;;;11.24;69.01;100189.44;6329985;22;20015;-75
2022/04/24 05:29:27;;;;;;;11.95;8.32;;;;;;;11.47;68.52;100192.06;6309032;22;20502;-76
2022/04/24 05:31:53;;;;;;;12.75;8.20;;;;;;;11.64;67.64;100184.13;6329983;22;20383;-76
2022/04/24 05:34:18;;;;;;;14.70;8.20;;;;;;;11.83;66.01;100188.28;6309243;22;20010;-76
2022/04/24 05:36:43;;;;;;;11.70;7.68;;;;;;;12.10;65.95;100197.38;6336827;22;20007;-76
2022/04/24 05:39:08;;;;;;;10.90;8.00;;;;;;;12.39;64.35;100192.00;6330082;22;20059;-76
2022/04/24 05:41:34;;;;;;;11.20;7.93;;;;;;;12.60;63.39;100196.66;6309209;22;20002;-76
2022/04/24 05:43:59;;;;;;;10.00;7.47;;;;;;;12.78;62.11;100194.81;6302578;22;20257;-76
2022/04/24 05:46:24;;;;;;;12.15;8.07;;;;;;;12.95;60.97;100195.59;6336888;22;20267;-76
2022/04/24 05:48:49;;;;;;;10.25;6.82;;;;;;;13.21;60.07;100196.81;6306369;22;20010;-76
2022/04/24 05:51:15;;;;;;;12.97;7.53;;;;;;;13.42;59.49;100201.41;6305394;22;20017;-76
2022/04/24 05:53:40;;;;;;;8.77;7.13;;;;;;;13.62;58.02;100195.50;6336860;22;20683;-76
2022/04/24 05:56:05;;;;;;;8.85;7.35;;;;;;;13.81;57.85;100194.09;6329897;22;20186;-76
2022/04/24 05:58:31;;;;;;;8.45;7.20;;;;;;;13.99;55.94;100195.66;6336779;22;20024;-76
2022/04/24 06:00:56;;;;;;;8.30;6.70;;;;;;;14.22;55.48;100206.13;6329832;22;20088;-76
2022/04/24 06:03:21;;;;;;;8.57;7.70;;;;;;;14.33;55.03;100193.56;6337111;22;20427;-76
2022/04/24 06:05:48;;;;;;;13.32;7.53;;;;;;;14.64;53.38;100210.03;6336678;22;20256;-77
2022/04/24 06:08:14;;;;;;;9.40;7.40;;;;;;;14.83;53.43;100205.88;6329965;22;20007;-77
2022/04/24 06:10:39;;;;;;;8.45;7.38;;;;;;;15.14;52.37;100196.13;6336851;22;20078;-77
2022/04/24 06:13:05;;;;;;;11.73;7.30;;;;;;;15.54;51.05;100217.09;6302294;22;20010;-77
2022/04/24 06:15:30;;;;;;;8.90;7.47;;;;;;;15.73;49.34;100212.91;6337227;22;20549;-77
2022/04/24 06:17:57;;;;;;;8.52;6.80;;;;;;;16.09;50.06;100221.13;6304910;22;20495;-76
2022/04/24 06:20:24;;;;;;;7.72;6.65;;;;;;;16.37;47.76;100212.53;6306846;22;20010;-77
2022/04/24 06:22:57;;;;;;;8.35;7.32;;;;;;;16.58;47.42;100223.38;6336687;22;20006;-77
2022/04/24 06:25:33;;;;;;;10.25;7.38;;;;;;;16.80;46.24;100223.16;6302297;22;20018;-76
2022/04/24 06:28:00;;;;;;;8.95;6.88;;;;;;;17.08;46.05;100227.19;6308889;22;20364;-77
2022/04/24 06:30:29;;;;;;;10.70;7.10;;;;;;;17.12;45.34;100220.97;6302459;22;20099;-76
2022/04/24 06:36:16;;;;;;;8.77;6.93;;;;;;;17.41;43.67;100218.47;6336786;22;20010;-79
2022/04/24 06:38:41;;;;;;;9.43;7.00;;;;;;;17.81;43.94;100222.16;6336368;22;20003;-75
2022/04/24 06:41:06;;;;;;;10.77;7.10;;;;;;;18.18;42.12;100227.91;6331492;22;20261;-76
2022/04/24 06:43:31;;;;;;;7.03;6.32;;;;;;;18.55;41.82;100227.41;6307021;22;20245;-77
2022/04/24 06:45:57;;;;;;;9.10;7.03;;;;;;;18.44;41.84;100225.03;6336772;22;20006;-76
2022/04/24 06:48:22;;;;;;;8.00;6.90;;;;;;;18.33;41.96;100223.50;6329578;22;20245;-76
2022/04/24 06:50:47;;;;;;;9.03;7.07;;;;;;;18.85;40.20;100226.41;6308905;22;20236;-76
2022/04/24 06:53:15;;;;;;;8.63;7.72;;;;;;;19.35;38.99;100232.41;6329699;22;20252;-78
2022/04/24 06:55:42;;;;;;;8.05;7.13;;;;;;;19.69;38.62;100231.56;6336287;22;20017;-76
2022/04/24 06:58:09;;;;;;;9.25;7.03;;;;;;;20.16;37.26;100241.53;6336460;22;20017;-77
2022/04/24 07:00:37;;;;;;;12.07;7.97;;;;;;;20.22;36.31;100234.91;6319151;22;20018;-77
2022/04/24 07:03:13;;;;;;;8.38;7.53;;;;;;;20.48;37.48;100234.56;6336571;22;20018;-77
2022/04/24 07:05:39;;;;;;;7.88;7.07;;;;;;;20.50;35.51;100224.22;6329509;22;20060;-78
2022/04/24 07:08:05;;;;;;;8.90;7.32;;;;;;;20.20;36.16;100226.25;6336406;22;19999;-77
2022/04/24 07:10:30;;;;;;;8.13;6.82;;;;;;;20.54;35.88;100226.09;6302213;22;20018;-77
2022/04/24 07:12:56;;;;;;;8.13;7.07;;;;;;;20.82;34.93;100240.59;6336568;22;20010;-77
2022/04/24 07:15:23;;;;;;;11.40;7.30;;;;;;;21.39;34.77;100243.94;6336346;22;20038;-76
2022/04/24 07:17:49;;;;;;;8.85;7.45;;;;;;;21.91;32.86;100239.13;6329394;22;20017;-77
2022/04/24 07:20:17;;;;;;;9.82;7.20;;;;;;;22.11;33.32;100238.72;6336296;22;20078;-77
2022/04/24 07:22:43;;;;;;;9.80;8.02;;;;;;;22.88;32.48;100235.06;6329305;22;20455;-76
2022/04/24 07:25:09;;;;;;;9.15;7.40;;;;;;;23.58;30.73;100238.97;6335548;22;20036;-77
2022/04/24 07:27:34;;;;;;;9.82;7.43;;;;;;;23.74;29.82;100232.78;6329743;22;20091;-77
2022/04/24 07:29:59;;;;;;;8.57;7.20;;;;;;;23.71;29.59;100241.59;6336417;22;20006;-78
2022/04/24 07:32:25;;;;;;;9.33;7.67;;;;;;;23.42;29.84;100236.66;6336351;22;20538;-77
2022/04/24 07:34:50;;;;;;;8.95;8.00;;;;;;;23.18;29.76;100239.72;6329637;22;20252;-77
2022/04/24 07:37:16;;;;;;;9.23;7.22;;;;;;;23.05;30.45;100242.53;6336241;22;20080;-77
2022/04/24 07:39:41;;;;;;;8.95;7.13;;;;;;;22.92;30.63;100251.59;6329574;22;20335;-78
2022/04/24 07:42:07;;;;;;;9.50;7.27;;;;;;;23.42;30.54;100249.50;6336448;22;20119;-77
2022/04/24 07:44:32;;;;;;;12.48;7.93;;;;;;;23.70;30.02;100234.50;6307209;22;20007;-76
2022/04/24 07:46:58;;;;;;;9.13;7.72;;;;;;;24.16;28.79;100238.63;6330538;22;20018;-77
2022/04/24 07:49:23;;;;;;;8.40;7.60;;;;;;;24.42;28.14;100249.63;6336358;22;20081;-78
2022/04/24 07:51:48;;;;;;;8.17;7.07;;;;;;;24.55;28.61;100248.66;6329515;22;20708;-78
2022/04/24 07:57:35;;;;;;;9.40;7.70;;;;;;;24.63;27.19;100249.78;6336334;22;20251;-77
2022/04/24 08:00:00;;;;;;;8.97;7.57;;;;;;;24.76;28.19;100251.53;6336053;22;20007;-76
2022/04/24 08:02:25;;;;;;;9.80;6.73;;;;;;;25.14;26.74;100256.31;6329637;22;20710;-78
2022/04/24 08:04:51;;;;;;;10.10;7.90;;;;;;;25.05;27.17;100264.56;6308743;22;20284;-76
2022/04/24 08:07:17;;;;;;;7.90;7.10;;;;;;;25.22;26.56;100255.53;6335972;22;20241;-77
2022/04/24 08:09:43;;;;;;;10.50;7.53;;;;;;;26.02;25.64;100251.00;6329111;22;20010;-77
2022/04/24 08:15:30;;;;;;;9.32;7.22;;;;;;;26.23;24.99;100261.97;6336183;22;20102;-77
2022/04/24 08:17:56;;;;;;;10.02;6.97;;;;;;;25.81;25.98;100259.19;6336090;22;19999;-77
2022/04/24 08:20:21;;;;;;;10.02;7.55;;;;;;;26.32;25.48;100267.44;6301762;22;20013;-78
2022/04/24 08:26:10;;;;;;;9.68;7.63;;;;;;;26.27;24.50;100262.91;6335976;22;20022;-77
2022/04/24 08:28:36;;;;;;;9.55;8.13;;;;;;;26.47;25.09;100266.84;6308274;22;20006;-77
2022/04/24 08:31:01;;;;;;;10.25;8.18;;;;;;;27.02;24.50;100265.75;6331570;22;20483;-77
2022/04/24 08:33:26;;;;;;;8.93;8.03;;;;;;;26.56;24.49;100273.06;6333304;22;20485;-77
2022/04/24 08:35:51;;;;;;;9.57;8.20;;;;;;;26.15;24.44;100265.59;6336325;22;20243;-77
2022/04/24 08:38:17;;;;;;;14.85;9.00;;;;;;;25.78;25.86;100272.75;6330431;22;20010;-77
2022/04/24 08:40:44;;;;;;;9.80;8.80;;;;;;;26.72;24.61;100262.28;6337429;22;20003;-77
2022/04/24 08:43:09;;;;;;;9.13;7.95;;;;;;;27.68;24.09;100260.16;6332697;22;20013;-77
2022/04/24 08:45:39;;;;;;;9.30;8.23;;;;;;;27.09;24.25;100264.03;6334549;22;20018;-77
2022/04/24 08:48:05;;;;;;;9.98;8.05;;;;;;;26.87;24.58;100275.38;6336893;22;20036;-78
2022/04/24 08:50:32;;;;;;;11.80;8.57;;;;;;;27.41;23.59;100264.34;6330092;22;20017;-78
2022/04/24 08:52:58;;;;;;;9.15;8.13;;;;;;;26.82;23.95;100268.16;6337191;22;20067;-77
2022/04/24 08:55:27;;;;;;;9.57;7.90;;;;;;;27.14;24.12;100268.50;6331144;22;20491;-78
2022/04/24 08:57:53;;;;;;;9.27;7.95;;;;;;;27.64;23.57;100265.53;6337028;22;20009;-77
2022/04/24 09:00:18;;;;;;;8.80;7.53;;;;;;;27.93;22.93;100272.75;6337173;22;20280;-78
2022/04/24 09:02:44;;;;;;;11.25;8.50;;;;;;;27.77;22.92;100277.34;6330333;22;20466;-77
2022/04/24 09:05:10;;;;;;;12.55;7.97;;;;;;;27.75;23.21;100274.91;6337015;22;20028;-77
2022/04/24 09:07:36;;;;;;;11.88;8.25;;;;;;;27.58;23.72;100277.88;6330140;22;20038;-77
2022/04/24 09:10:09;;;;;;;11.93;8.98;;;;;;;27.03;23.60;100281.88;6337177;22;20014;-78
2022/04/24 09:12:35;;;;;;;11.20;8.32;;;;;;;27.08;24.29;100267.94;6309295;22;20003;-77
2022/04/24 09:15:01;;;;;;;13.40;8.23;;;;;;;27.09;23.60;100269.53;6330221;22;20014;-79
2022/04/24 09:20:54;;;;;;;12.70;9.52;;;;;;;26.82;23.91;100272.84;6337028;22;20040;-77
2022/04/24 09:23:20;;;;;;;10.77;8.90;;;;;;;26.41;23.80;100273.66;6309430;22;20034;-77
2022/04/24 09:29:11;;;;;;;14.45;9.50;;;;;;;25.88;25.23;100277.84;6337040;22;20029;-79
2022/04/24 09:31:37;;;;;;;11.45;9.43;;;;;;;25.79;24.95;100279.81;6330156;22;20532;-78
2022/04/24 09:34:02;;;;;;;10.40;9.30;;;;;;;24.80;26.39;100281.78;6336952;22;20019;-77
2022/04/24 09:36:27;;;;;;;10.33;9.33;;;;;;;25.54;25.53;100278.78;6309094;22;20249;-78
2022/04/24 09:38:52;;;;;;;11.80;9.03;;;;;;;24.90;25.72;100274.06;6330182;22;20205;-77
2022/04/24 09:41:20;;;;;;;11.23;9.13;;;;;;;24.25;27.18;100282.34;6336974;22;20245;-79
2022/04/24 09:43:46;;;;;;;13.05;9.70;;;;;;;23.95;27.19;100279.41;6302461;22;20276;-78
2022/04/24 09:46:12;;;;;;;10.55;8.63;;;;;;;24.35;27.77;100271.97;6336922;22;20013;-78
2022/04/24 09:48:37;;;;;;;11.10;9.93;;;;;;;24.76;26.67;100280.81;6336357;22;20010;-79
2022/04/24 09:51:03;;;;;;;11.80;9.50;;;;;;;25.22;26.39;100278.22;6302758;22;20447;-77
2022/04/24 09:53:29;;;;;;;15.35;9.05;;;;;;;25.78;25.54;100275.47;6309126;22;20031;-78
2022/04/24 09:55:55;;;;;;;14.00;9.88;;;;;;;24.54;26.07;100268.91;6329897;22;20018;-77
2022/04/24 09:58:23;;;;;;;11.30;10.15;;;;;;;24.29;27.77;100278.72;6336695;22;20007;-78
2022/04/24 10:00:51;;;;;;;11.43;10.25;;;;;;;23.65;27.93;100272.88;6333324;22;20446;-78
2022/04/24 10:03:18;;;;;;;11.60;10.00;;;;;;;23.57;28.14;100262.72;6333895;22;20060;-78
2022/04/24 10:05:46;;;;;;;11.80;9.98;;;;;;;23.69;28.51;100279.31;6336506;22;20045;-78
2022/04/24 10:08:13;;;;;;;11.88;9.68;;;;;;;23.29;28.07;100274.94;6329811;22;20038;-78
2022/04/24 10:10:38;;;;;;;11.27;9.73;;;;;;;22.94;30.54;100263.81;6336580;22;20378;-80
2022/04/24 10:13:07;;;;;;;14.32;10.70;;;;;;;23.14;28.29;100271.50;6331758;22;20481;-78
2022/04/24 10:15:33;;;;;;;13.00;9.00;;;;;;;23.01;29.98;100277.00;6336095;22;20439;-77
2022/04/24 10:18:08;;;;;;;12.35;10.90;;;;;;;22.57;29.55;100278.56;6336893;22;20073;-78
2022/04/24 10:20:56;;;;;;;11.07;10.07;;;;;;;22.02;31.97;100283.28;6329764;22;20010;-78
2022/04/24 10:23:30;;;;;;;10.38;9.27;;;;;;;23.04;29.42;100268.19;6336588;22;20003;-79
2022/04/24 10:25:55;;;;;;;11.27;9.30;;;;;;;24.14;28.88;100276.41;6329589;22;20336;-79
2022/04/24 10:28:21;;;;;;;11.98;9.55;;;;;;;24.12;28.03;100289.59;6336703;22;20034;-78
2022/04/24 10:31:03;;;;;;;11.88;9.98;;;;;;;23.40;28.13;100274.34;6336738;22;20420;-78
2022/04/24 10:33:32;;;;;;;10.40;9.23;;;;;;;22.85;28.93;100276.59;6327412;22;20081;-77
2022/04/24 10:35:59;;;;;;;11.45;9.50;;;;;;;22.31;30.30;100272.09;6336766;22;20010;-78
2022/04/24 10:38:26;;;;;;;12.23;9.23;;;;;;;21.70;30.77;100278.75;6302484;22;20014;-78
2022/04/24 10:40:56;;;;;;;10.20;8.38;;;;;;;20.98;32.10;100274.53;6308974;22;20067;-78
2022/04/24 10:43:23;;;;;;;11.80;8.82;;;;;;;20.79;32.83;100278.38;6303814;22;20062;-79
2022/04/24 10:45:49;;;;;;;9.27;7.95;;;;;;;20.64;32.49;100285.69;6335264;22;20015;-78
2022/04/24 10:48:15;;;;;;;11.23;8.73;;;;;;;21.34;32.77;100279.41;6308753;22;20313;-78
2022/04/24 10:51:17;;;;;;;10.95;9.05;;;;;;;21.83;32.07;100277.94;6329531;22;20093;-78
2022/04/24 10:53:56;;;;;;;9.95;7.88;;;;;;;22.63;31.29;100290.97;6336593;22;20458;-78
2022/04/24 10:56:21;;;;;;;11.90;8.10;;;;;;;22.80;30.41;100273.91;6329593;22;20006;-78
2022/04/24 10:58:49;;;;;;;12.35;7.75;;;;;;;22.71;29.28;100284.78;6336627;22;20011;-78
2022/04/24 11:01:15;;;;;;;10.95;7.55;;;;;;;22.08;30.04;100273.94;6335795;22;20423;-78
2022/04/24 11:03:42;;;;;;;11.50;8.45;;;;;;;21.85;31.49;100273.00;6330863;22;20569;-77
2022/04/24 11:06:20;;;;;;;10.52;8.50;;;;;;;22.49;31.91;100279.28;6336419;22;20014;-77
2022/04/24 11:08:46;;;;;;;9.52;8.50;;;;;;;22.52;30.07;100293.09;6329605;22;20014;-78
2022/04/24 11:11:15;;;;;;;11.07;8.50;;;;;;;22.31;30.52;100285.69;6309064;22;20431;-78
2022/04/24 11:13:42;;;;;;;13.55;9.30;;;;;;;22.63;29.52;100282.78;6329675;22;20011;-79
2022/04/24 11:16:08;;;;;;;11.15;7.78;;;;;;;22.79;29.80;100280.50;6336671;22;20124;-78
2022/04/24 11:21:56;;;;;;;12.98;8.15;;;;;;;21.72;31.60;100285.50;6336459;22;20068;-78
2022/04/24 11:24:23;;;;;;;9.60;8.38;;;;;;;21.72;30.80;100284.72;6308502;22;20007;-78
2022/04/24 11:26:48;;;;;;;8.93;7.93;;;;;;;21.57;32.18;100283.06;6329225;22;20025;-80
2022/04/24 11:29:14;;;;;;;9.48;7.85;;;;;;;21.68;32.13;100286.41;6336394;22;20467;-78
2022/04/24 11:31:47;;;;;;;9.30;7.88;;;;;;;21.45;32.12;100275.41;6329355;22;20030;-78
2022/04/24 11:34:13;;;;;;;10.70;7.78;;;;;;;21.35;32.43;100275.56;6336614;22;20006;-79
2022/04/24 11:36:38;;;;;;;12.18;8.55;;;;;;;21.68;34.32;100273.59;6308730;22;20094;-79
2022/04/24 11:39:07;;;;;;;10.93;8.20;;;;;;;21.86;32.11;100271.88;6328052;22;20011;-79
2022/04/24 11:41:33;;;;;;;10.05;8.13;;;;;;;22.31;31.11;100285.69;6336205;22;20072;-79
2022/04/24 11:52:57;;;;;;;10.65;7.72;;;;;;;22.80;32.05;100276.66;6336877;22;20030;-78
2022/04/24 11:56:00;;;;;;;13.63;8.15;;;;;;;22.75;30.70;100274.84;6330236;22;20011;-78
2022/04/24 11:58:08;;;;;;;8.25;7.38;;;;;;;22.48;30.56;100283.94;6335873;22;20006;-78
2022/04/24 12:00:38;;;;;;;9.80;7.85;;;;;;;22.36;31.32;100278.22;6336047;22;20013;-79
2022/04/24 12:03:05;;;;;;;11.10;7.85;;;;;;;22.04;33.36;100267.47;6329167;22;20347;-78
2022/04/24 12:05:31;;;;;;;9.55;8.45;;;;;;;22.61;31.81;100268.66;6336038;22;20388;-77
2022/04/24 12:07:56;;;;;;;11.32;7.80;;;;;;;22.72;31.36;100272.75;6329040;22;20041;-78